createdAt,value
2023-04-04T00:00:29.863Z,4.10
2023-04-04T00:02:56.827Z,3.17
2023-04-04T00:05:23.969Z,4.87
2023-04-04T00:07:50.770Z,3.50
2023-04-04T00:10:17.496Z,4.90
2023-04-04T00:12:44.254Z,4.73
2023-04-04T00:15:11.927Z,2.53
2023-04-04T00:17:38.697Z,5.03
2023-04-04T00:20:07.114Z,5.03
2023-04-04T00:22:33.735Z,3.33
2023-04-04T00:25:00.711Z,3.57
2023-04-04T00:27:27.741Z,2.57
2023-04-04T00:29:55.060Z,3.50
2023-04-04T00:32:21.825Z,5.77
2023-04-04T00:34:57.169Z,3.07
2023-04-04T00:37:23.800Z,5.67
2023-04-04T00:39:50.517Z,6.03
2023-04-04T00:42:17.938Z,7.57
2023-04-04T00:44:44.789Z,3.13
2023-04-04T00:47:11.736Z,5.93
2023-04-04T00:49:38.369Z,3.63
2023-04-04T00:52:07.755Z,3.73
2023-04-04T00:54:35.492Z,5.53
2023-04-04T00:57:04.182Z,3.60
2023-04-04T00:59:32.595Z,4.13
2023-04-04T01:02:00.947Z,4.90
2023-04-04T01:04:31.568Z,5.03
2023-04-04T01:06:58.953Z,5.00
2023-04-04T01:09:26.396Z,3.13
2023-04-04T01:11:55.706Z,5.40
2023-04-04T01:14:22.755Z,4.43
2023-04-04T01:16:52.757Z,5.00
2023-04-04T01:19:30.498Z,5.03
2023-04-04T01:22:00.048Z,5.63
2023-04-04T01:24:28.345Z,5.70
2023-04-04T01:26:55.120Z,3.17
2023-04-04T01:29:21.739Z,4.20
2023-04-04T01:31:57.502Z,3.07
2023-04-04T01:34:42.645Z,6.20
2023-04-04T01:37:28.014Z,4.93
2023-04-04T01:40:05.375Z,3.80
2023-04-04T01:42:32.732Z,4.77
2023-04-04T01:44:59.605Z,4.37
2023-04-04T01:47:26.446Z,5.90
2023-04-04T01:49:54.051Z,7.37
2023-04-04T01:52:20.739Z,8.77
2023-04-04T01:54:47.332Z,7.17
2023-04-04T01:57:14.131Z,4.93
2023-04-04T01:59:40.714Z,7.27
2023-04-04T02:02:07.464Z,5.90
2023-04-04T02:04:34.352Z,4.47
2023-04-04T02:07:01.049Z,6.47
2023-04-04T02:09:27.749Z,5.00
2023-04-04T02:11:54.750Z,5.73
2023-04-04T02:14:21.610Z,5.63
2023-04-04T02:16:48.218Z,6.33
2023-04-04T02:19:15.194Z,8.27
2023-04-04T02:21:41.909Z,5.37
2023-04-04T02:24:08.615Z,7.50
2023-04-04T02:26:35.229Z,4.70
2023-04-04T02:29:02.815Z,6.17
2023-04-04T02:31:29.656Z,7.90
2023-04-04T02:33:56.516Z,5.30
2023-04-04T02:36:23.194Z,6.90
2023-04-04T02:38:50.289Z,8.30
2023-04-04T02:41:17.182Z,6.73
2023-04-04T02:43:44.290Z,5.60
2023-04-04T02:46:21.182Z,8.43
2023-04-04T02:48:49.439Z,6.63
2023-04-04T02:51:16.812Z,7.57
2023-04-04T02:53:43.642Z,7.30
2023-04-04T02:56:10.356Z,6.43
2023-04-04T02:58:37.043Z,8.53
2023-04-04T03:01:03.707Z,6.10
2023-04-04T03:03:30.640Z,7.30
2023-04-04T03:05:58.755Z,7.93
2023-04-04T03:08:25.551Z,5.90
2023-04-04T03:10:52.591Z,6.57
2023-04-04T03:13:19.251Z,6.27
2023-04-04T03:15:47.358Z,8.13
2023-04-04T03:18:14.292Z,5.20
2023-04-04T03:20:41.026Z,7.83
2023-04-04T03:23:07.961Z,8.00
2023-04-04T03:25:34.840Z,6.93
2023-04-04T03:28:11.303Z,6.33
2023-04-04T03:30:38.896Z,7.57
2023-04-04T03:33:08.723Z,9.07
2023-04-04T03:35:39.969Z,7.97
2023-04-04T03:38:07.512Z,8.13
2023-04-04T03:40:34.333Z,7.60
2023-04-04T03:43:02.420Z,8.87
2023-04-04T03:45:30.461Z,7.33
2023-04-04T03:47:57.314Z,8.53
2023-04-04T03:50:24.053Z,11.77
2023-04-04T03:52:50.763Z,8.73
2023-04-04T03:55:17.672Z,7.57
2023-04-04T03:57:44.526Z,7.50
2023-04-04T04:00:12.248Z,8.77
2023-04-04T04:02:39.394Z,9.57
2023-04-04T04:05:06.414Z,6.80
2023-04-04T04:07:33.623Z,10.83
2023-04-04T04:10:00.659Z,10.43
2023-04-04T04:12:27.400Z,11.80
2023-04-04T04:14:54.210Z,7.40
2023-04-04T04:17:20.871Z,8.40
2023-04-04T04:19:47.954Z,9.73
2023-04-04T04:22:14.695Z,8.17
2023-04-04T04:24:41.396Z,9.53
2023-04-04T04:27:08.228Z,8.77
2023-04-04T04:29:34.823Z,8.33
2023-04-04T04:32:01.630Z,8.30
2023-04-04T04:34:28.415Z,11.57
2023-04-04T04:36:55.096Z,9.97
2023-04-04T04:39:21.737Z,7.20
2023-04-04T04:41:48.549Z,9.43
2023-04-04T04:44:15.549Z,10.73
2023-04-04T04:46:42.416Z,8.93
2023-04-04T04:49:09.420Z,8.50
2023-04-04T04:51:36.172Z,10.13
2023-04-04T04:54:02.863Z,8.07
2023-04-04T04:56:30.035Z,9.07
2023-04-04T04:58:57.415Z,8.10
2023-04-04T05:01:24.497Z,9.73
2023-04-04T05:03:52.918Z,9.67
2023-04-04T05:06:20.623Z,9.23
2023-04-04T05:08:47.375Z,9.53
2023-04-04T05:11:14.159Z,9.37
2023-04-04T05:13:41.024Z,8.10
2023-04-04T05:16:07.995Z,9.30
2023-04-04T05:18:34.796Z,9.90
2023-04-04T05:21:01.603Z,7.13
2023-04-04T05:23:28.199Z,9.20
2023-04-04T05:25:55.133Z,10.23
2023-04-04T05:28:22.859Z,11.23
2023-04-04T05:30:50.114Z,7.10
2023-04-04T05:33:16.895Z,7.83
2023-04-04T05:35:43.821Z,9.20
2023-04-04T05:38:10.725Z,10.07
2023-04-04T05:40:37.456Z,7.07
2023-04-04T05:43:04.557Z,7.73
2023-04-04T05:45:32.029Z,6.60
2023-04-04T05:47:58.794Z,7.33
2023-04-04T05:50:25.640Z,8.23
2023-04-04T05:52:55.225Z,5.80
2023-04-04T05:55:22.208Z,5.90
2023-04-04T05:57:53.185Z,8.33
2023-04-04T06:00:20.226Z,4.97
2023-04-04T06:02:47.029Z,5.00
2023-04-04T06:05:14.063Z,5.70
2023-04-04T06:07:40.768Z,4.60
2023-04-04T06:10:08.665Z,7.13
2023-04-04T06:12:35.362Z,5.03
2023-04-04T06:15:02.018Z,7.83
2023-04-04T06:17:28.768Z,5.87
2023-04-04T06:19:55.848Z,6.13
2023-04-04T06:22:22.593Z,7.23
2023-04-04T06:24:49.506Z,10.73
2023-04-04T06:27:16.707Z,5.00
2023-04-04T06:29:43.866Z,4.20
2023-04-04T06:32:11.187Z,6.97
2023-04-04T06:34:38.393Z,4.87
2023-04-04T06:37:05.058Z,4.97
2023-04-04T06:39:31.850Z,3.57
2023-04-04T06:41:58.712Z,3.90
2023-04-04T06:44:25.548Z,3.63
2023-04-04T06:46:52.629Z,3.87
2023-04-04T06:49:19.653Z,4.00
2023-04-04T06:51:46.797Z,4.47
2023-04-04T06:54:13.490Z,2.80
2023-04-04T06:56:40.302Z,2.80
2023-04-04T06:59:06.996Z,3.67
2023-04-04T07:01:34.507Z,4.87
2023-04-04T07:04:01.107Z,4.80
2023-04-04T07:06:29.660Z,5.67
2023-04-04T07:08:56.961Z,3.60
2023-04-04T07:11:27.099Z,6.30
2023-04-04T07:13:54.111Z,3.80
2023-04-04T07:16:21.230Z,4.10
2023-04-04T07:18:47.941Z,4.07
2023-04-04T07:21:14.645Z,4.03
2023-04-04T07:23:41.382Z,5.20
2023-04-04T07:26:08.051Z,3.63
2023-04-04T07:28:34.680Z,5.20
2023-04-04T07:31:04.501Z,4.33
2023-04-04T07:33:31.233Z,5.17
2023-04-04T07:35:58.120Z,2.83
2023-04-04T07:38:24.934Z,4.53
2023-04-04T07:40:51.641Z,2.77
2023-04-04T07:43:18.336Z,4.40
2023-04-04T07:45:45.571Z,5.77
2023-04-04T07:48:12.409Z,2.40
2023-04-04T07:50:39.262Z,2.47
2023-04-04T07:53:06.580Z,2.30
2023-04-04T07:55:33.304Z,3.83
2023-04-04T07:57:59.958Z,2.73
2023-04-04T08:00:26.836Z,5.03
2023-04-04T08:02:54.848Z,2.53
2023-04-04T08:05:21.682Z,2.70
2023-04-04T08:07:48.365Z,4.83
2023-04-04T08:10:17.485Z,4.20
2023-04-04T08:12:47.953Z,4.17
2023-04-04T08:15:14.731Z,3.33
2023-04-04T08:17:43.197Z,2.83
2023-04-04T08:20:11.095Z,4.00
2023-04-04T08:22:39.119Z,4.57
2023-04-04T08:25:05.979Z,2.97
2023-04-04T08:27:32.832Z,3.23
2023-04-04T08:29:59.564Z,3.60
2023-04-04T08:32:26.514Z,3.73
2023-04-04T08:34:53.377Z,2.97
2023-04-04T08:37:20.093Z,3.00
2023-04-04T08:39:46.682Z,1.70
2023-04-04T08:42:16.842Z,2.53
2023-04-04T08:44:45.887Z,4.15
2023-04-04T08:47:13.635Z,3.03
2023-04-04T08:49:46.695Z,3.10
2023-04-04T08:52:19.307Z,2.33
2023-04-04T08:54:47.474Z,3.22
2023-04-04T08:57:14.594Z,3.83
2023-04-04T08:59:41.330Z,2.45
2023-04-04T09:02:11.697Z,1.85
2023-04-04T09:04:40.824Z,3.30
2023-04-04T09:07:08.084Z,3.50
2023-04-04T09:09:37.990Z,3.22
2023-04-04T09:12:05.578Z,3.65
2023-04-04T09:14:33.416Z,2.40
2023-04-04T09:17:00.254Z,3.90
2023-04-04T09:19:27.667Z,3.22
2023-04-04T09:21:54.419Z,4.82
2023-04-04T09:24:21.297Z,2.13
2023-04-04T09:26:58.315Z,3.65
2023-04-04T09:29:24.964Z,1.70
2023-04-04T09:31:51.702Z,2.40
2023-04-04T09:34:20.366Z,3.65
2023-04-04T09:36:47.706Z,2.17
2023-04-04T09:39:17.792Z,2.47
2023-04-04T09:41:45.445Z,2.05
2023-04-04T09:44:15.284Z,1.85
2023-04-04T09:46:42.264Z,1.90
2023-04-04T09:49:20.621Z,2.65
2023-04-04T09:51:54.769Z,1.63
2023-04-04T09:54:29.441Z,2.60
2023-04-04T09:56:57.385Z,2.05
2023-04-04T09:59:24.455Z,2.30
2023-04-04T10:01:54.342Z,1.65
2023-04-04T10:04:21.545Z,2.20
2023-04-04T10:06:48.706Z,2.70
2023-04-04T10:09:16.246Z,2.10
2023-04-04T10:11:42.989Z,1.63
2023-04-04T10:14:09.974Z,2.67
2023-04-04T10:16:37.584Z,3.22
2023-04-04T10:19:07.765Z,1.85
2023-04-04T10:21:35.726Z,1.80
2023-04-04T10:24:09.480Z,2.13
2023-04-04T10:26:36.649Z,2.00
2023-04-04T10:29:05.084Z,2.42
2023-04-04T10:31:34.033Z,2.28
2023-04-04T10:34:12.823Z,2.13
2023-04-04T10:36:51.263Z,1.85
2023-04-04T10:39:23.684Z,1.33
2023-04-04T10:41:52.146Z,1.83
2023-04-04T10:44:29.277Z,1.38
2023-04-04T10:46:59.647Z,1.90
2023-04-04T10:49:29.662Z,2.38
2023-04-04T10:51:57.502Z,1.17
2023-04-04T10:54:27.477Z,2.45
2023-04-04T10:56:56.812Z,1.88
2023-04-04T10:59:25.753Z,2.28
2023-04-04T11:01:58.402Z,3.00
2023-04-04T11:04:32.919Z,2.25
2023-04-04T11:07:18.818Z,1.90
2023-04-04T11:09:56.557Z,4.40
2023-04-04T11:12:29.055Z,2.30
2023-04-04T11:14:56.843Z,1.58
2023-04-04T11:17:48.692Z,2.60
2023-04-04T11:20:18.673Z,2.97
2023-04-04T11:22:46.027Z,2.90
2023-04-04T11:25:27.254Z,2.53
2023-04-04T11:28:00.821Z,3.22
2023-04-04T11:30:28.358Z,3.05
2023-04-04T11:33:07.073Z,2.15
2023-04-04T11:35:39.005Z,3.72
2023-04-04T11:38:13.274Z,2.65
2023-04-04T11:40:42.757Z,2.25
2023-04-04T11:43:11.262Z,1.55
2023-04-04T11:45:43.726Z,2.35
2023-04-04T11:48:10.830Z,2.60
2023-04-04T11:50:41.435Z,3.60
2023-04-04T11:53:10.082Z,2.63
2023-04-04T11:55:42.818Z,2.75
2023-04-04T11:58:12.996Z,1.67
2023-04-04T12:00:41.469Z,2.25
2023-04-04T12:03:13.613Z,2.25
2023-04-04T12:05:43.352Z,3.00
2023-04-04T12:08:12.383Z,2.90
2023-04-04T12:10:40.626Z,2.05
2023-04-04T12:13:08.961Z,3.03
2023-04-04T12:15:37.063Z,2.50
2023-04-04T12:18:08.050Z,4.00
2023-04-04T12:20:38.490Z,3.22
2023-04-04T12:23:05.214Z,2.58
2023-04-04T12:25:34.129Z,2.80
2023-04-04T12:28:04.809Z,3.20
2023-04-04T12:30:32.331Z,3.53
2023-04-04T12:32:59.361Z,2.88
2023-04-04T12:35:26.071Z,2.38
2023-04-04T12:38:04.130Z,2.72
2023-04-04T12:40:37.362Z,2.33
2023-04-04T12:43:05.875Z,2.42
2023-04-04T12:45:33.235Z,2.72
2023-04-04T12:47:59.882Z,3.33
2023-04-04T12:50:28.424Z,1.90
2023-04-04T12:53:00.262Z,5.07
2023-04-04T12:55:35.720Z,2.88
2023-04-04T12:58:04.109Z,2.40
2023-04-04T13:00:30.705Z,4.10
2023-04-04T13:02:57.365Z,2.30
2023-04-04T13:05:25.728Z,3.47
2023-04-04T13:08:05.904Z,2.25
2023-04-04T13:10:56.580Z,2.38
2023-04-04T13:13:35.228Z,2.38
2023-04-04T13:16:02.921Z,2.75
2023-04-04T13:18:37.355Z,2.65
2023-04-04T13:21:07.998Z,2.83
2023-04-04T13:23:39.196Z,3.63
2023-04-04T13:26:08.036Z,2.03
2023-04-04T13:28:36.590Z,3.42
2023-04-04T13:31:08.529Z,2.92
2023-04-04T13:33:35.608Z,1.52
2023-04-04T13:36:02.410Z,4.28
2023-04-04T13:38:30.680Z,2.70
2023-04-04T13:40:59.162Z,2.15
2023-04-04T13:43:26.226Z,3.33
2023-04-04T13:45:56.098Z,2.47
2023-04-04T13:48:23.354Z,4.93
2023-04-04T13:50:55.575Z,4.03
2023-04-04T13:53:22.364Z,2.00
2023-04-04T13:58:20.226Z,2.20
2023-04-04T14:00:48.382Z,2.45
2023-04-04T14:03:16.644Z,3.83
2023-04-04T14:05:43.726Z,2.42
2023-04-04T14:08:10.545Z,2.03
2023-04-04T14:10:37.363Z,2.08
2023-04-04T14:13:04.253Z,3.08
2023-04-04T14:15:31.141Z,2.70
2023-04-04T14:17:57.709Z,1.70
2023-04-04T14:20:24.399Z,2.80
2023-04-04T14:22:51.201Z,1.85
2023-04-04T14:25:18.164Z,2.55
2023-04-04T14:27:44.765Z,2.53
2023-04-04T14:30:12.458Z,4.38
2023-04-04T14:32:39.047Z,2.53
2023-04-04T14:35:06.375Z,2.15
2023-04-04T14:37:32.957Z,3.10
2023-04-04T14:39:59.494Z,3.28
2023-04-04T14:42:26.416Z,2.30
2023-04-04T14:44:53.122Z,2.92
2023-04-04T14:47:19.675Z,2.60
2023-04-04T14:49:46.365Z,2.13
2023-04-04T14:52:13.093Z,1.70
2023-04-04T14:54:39.686Z,1.80
2023-04-04T14:57:06.736Z,2.92
2023-04-04T14:59:33.428Z,2.78
2023-04-04T15:02:00.171Z,3.33
2023-04-04T15:04:27.121Z,6.53
2023-04-04T15:06:54.252Z,2.25
2023-04-04T15:09:21.588Z,3.15
2023-04-04T15:11:49.410Z,2.95
2023-04-04T15:14:16.076Z,2.95
2023-04-04T15:16:43.147Z,1.85
2023-04-04T15:19:11.388Z,1.80
2023-04-04T15:21:37.983Z,2.00
2023-04-04T15:24:04.848Z,1.83
2023-04-04T15:26:31.490Z,2.50
2023-04-04T15:28:58.127Z,3.58
2023-04-04T15:31:26.191Z,2.95
2023-04-04T15:33:55.322Z,2.13
2023-04-04T15:36:23.621Z,2.50
2023-04-04T15:38:50.601Z,1.85
2023-04-04T15:41:17.264Z,1.55
2023-04-04T15:43:44.138Z,3.25
2023-04-04T15:46:10.813Z,2.45
2023-04-04T15:48:37.498Z,2.60
2023-04-04T15:51:04.608Z,2.03
2023-04-04T15:53:31.552Z,2.50
2023-04-04T15:55:59.321Z,3.42
2023-04-04T15:58:26.633Z,2.80
2023-04-04T16:00:55.538Z,3.45
2023-04-04T16:03:23.933Z,3.25
2023-04-04T16:05:50.902Z,3.13
2023-04-04T16:08:18.179Z,3.78
2023-04-04T16:10:45.114Z,2.20
2023-04-04T16:13:13.026Z,2.38
2023-04-04T16:15:39.765Z,2.28
2023-04-04T16:18:07.057Z,1.90
2023-04-04T16:20:33.996Z,2.72
2023-04-04T16:23:00.912Z,2.67
2023-04-04T16:25:27.663Z,2.47
2023-04-04T16:27:54.392Z,2.25
2023-04-04T16:30:21.020Z,4.20
2023-04-04T16:32:47.715Z,4.05
2023-04-04T16:35:14.838Z,3.33
2023-04-04T16:37:41.371Z,2.97
2023-04-04T16:40:08.531Z,5.65
2023-04-04T16:42:35.301Z,3.25
2023-04-04T16:45:01.961Z,3.53
2023-04-04T16:47:28.570Z,3.83
2023-04-04T16:49:55.504Z,2.15
2023-04-04T16:52:22.097Z,3.65
2023-04-04T16:54:48.752Z,3.30
2023-04-04T16:57:15.545Z,3.55
2023-04-04T16:59:42.137Z,3.25
2023-04-04T17:02:09.296Z,2.95
2023-04-04T17:04:39.493Z,2.90
2023-04-04T17:07:07.735Z,3.30
2023-04-04T17:09:35.629Z,4.93
2023-04-04T17:12:03.221Z,2.30
2023-04-04T17:14:30.104Z,2.47
2023-04-04T17:17:00.830Z,3.83
2023-04-04T17:19:30.197Z,3.72
2023-04-04T17:21:57.452Z,3.70
2023-04-04T17:24:25.620Z,4.38
2023-04-04T17:26:52.614Z,2.13
2023-04-04T17:29:20.629Z,4.57
2023-04-04T17:31:50.352Z,3.30
2023-04-04T17:34:17.103Z,1.95
2023-04-04T17:36:43.898Z,3.30
2023-04-04T17:39:10.946Z,2.67
2023-04-04T17:41:37.767Z,2.15
2023-04-04T17:44:04.454Z,3.30
2023-04-04T17:46:31.149Z,2.83
2023-04-04T17:48:57.752Z,3.05
2023-04-04T17:51:24.360Z,2.53
2023-04-04T17:53:51.574Z,4.28
2023-04-04T17:56:18.312Z,2.88
2023-04-04T17:58:44.889Z,4.30
2023-04-04T18:01:11.596Z,2.75
2023-04-04T18:03:38.530Z,4.35
2023-04-04T18:06:05.828Z,2.75
2023-04-04T18:08:44.208Z,3.22
2023-04-04T18:11:11.344Z,8.57
2023-04-04T18:13:38.053Z,8.93
2023-04-04T18:16:07.159Z,5.13
2023-04-04T18:18:35.668Z,6.80
2023-04-04T18:21:02.417Z,4.40
2023-04-04T18:23:29.061Z,2.72
2023-04-04T18:25:55.850Z,2.93
2023-04-04T18:28:22.753Z,2.95
2023-04-04T18:30:49.420Z,3.13
2023-04-04T18:33:16.035Z,4.07
2023-04-04T18:35:42.676Z,3.83
2023-04-04T18:38:09.407Z,4.23
2023-04-04T18:40:36.309Z,5.50
2023-04-04T18:43:04.134Z,4.83
2023-04-04T18:45:40.429Z,4.13
2023-04-04T18:48:08.274Z,3.93
2023-04-04T18:50:35.165Z,6.97
2023-04-04T18:53:01.753Z,5.70
2023-04-04T18:55:28.538Z,4.73
2023-04-04T18:57:55.430Z,2.83
2023-04-04T19:00:22.083Z,5.20
2023-04-04T19:02:49.681Z,5.30
2023-04-04T19:05:23.414Z,3.50
2023-04-04T19:07:54.230Z,4.10
2023-04-04T19:10:21.337Z,4.87
2023-04-04T19:12:48.180Z,3.90
2023-04-04T19:15:15.214Z,5.07
2023-04-04T19:17:42.469Z,4.43
2023-04-04T19:20:10.599Z,4.77
2023-04-04T19:22:37.341Z,4.97
2023-04-04T19:25:04.284Z,5.57
2023-04-04T19:27:30.931Z,5.37
2023-04-04T19:29:57.539Z,5.70
2023-04-04T19:32:27.584Z,6.47
2023-04-04T19:34:54.356Z,5.37
2023-04-04T19:37:21.560Z,7.53
2023-04-04T19:39:48.965Z,5.73
2023-04-04T19:42:19.140Z,7.23
2023-04-04T19:44:45.773Z,5.50
2023-04-04T19:47:16.041Z,4.43
2023-04-04T19:49:42.623Z,7.30
2023-04-04T19:52:09.283Z,5.70
2023-04-04T19:54:42.677Z,4.93
2023-04-04T19:57:29.734Z,6.90
2023-04-04T20:00:03.747Z,5.53
2023-04-04T20:02:30.429Z,5.33
2023-04-04T20:04:57.519Z,6.30
2023-04-04T20:07:25.283Z,5.23
2023-04-04T20:09:52.589Z,5.50
2023-04-04T20:12:24.171Z,8.07
2023-04-04T20:14:51.097Z,7.00
2023-04-04T20:17:20.859Z,7.27
2023-04-04T20:19:48.442Z,7.13
2023-04-04T20:22:16.800Z,6.77
2023-04-04T20:24:46.612Z,4.47
2023-04-04T20:27:23.389Z,8.00
2023-04-04T20:29:53.717Z,5.17
2023-04-04T20:32:20.361Z,6.23
2023-04-04T20:34:50.796Z,6.97
2023-04-04T20:37:22.264Z,6.47
2023-04-04T20:39:53.039Z,5.77
2023-04-04T20:42:31.501Z,5.50
2023-04-04T20:45:09.136Z,7.00
2023-04-04T20:47:49.131Z,5.87
2023-04-04T20:50:39.628Z,5.23
2023-04-04T20:53:07.209Z,5.90
2023-04-04T20:55:35.541Z,6.27
2023-04-04T20:58:25.534Z,6.60
2023-04-04T21:00:52.462Z,5.63
2023-04-04T21:03:25.605Z,7.27
2023-04-04T21:05:54.600Z,5.63
2023-04-04T21:08:29.293Z,5.83
2023-04-04T21:10:57.510Z,6.40
2023-04-04T21:13:33.349Z,6.37
2023-04-04T21:16:02.130Z,6.17
2023-04-04T21:18:31.359Z,6.20
2023-04-04T21:21:06.711Z,6.13
2023-04-04T21:23:34.865Z,7.73
2023-04-04T21:26:08.695Z,7.23
2023-04-04T21:28:38.432Z,7.30
2023-04-04T21:31:13.733Z,7.03
2023-04-04T21:33:44.214Z,6.50
2023-04-04T21:36:27.470Z,7.87
2023-04-04T21:38:56.231Z,6.00
2023-04-04T21:41:31.428Z,5.13
2023-04-04T21:44:03.294Z,6.97
2023-04-04T21:46:33.679Z,6.43
2023-04-04T21:49:00.846Z,7.37
2023-04-04T21:51:27.715Z,9.10
2023-04-04T21:53:54.992Z,8.50
2023-04-04T21:56:27.095Z,8.33
2023-04-04T21:58:54.736Z,4.90
2023-04-04T22:01:22.040Z,6.43
2023-04-04T22:03:48.814Z,7.10
2023-04-04T22:06:15.463Z,6.00
2023-04-04T22:08:42.892Z,6.13
2023-04-04T22:11:19.215Z,7.63
2023-04-04T22:13:50.019Z,6.83
2023-04-04T22:16:18.897Z,6.93
2023-04-04T22:18:52.875Z,6.33
2023-04-04T22:21:29.040Z,7.70
2023-04-04T22:24:02.103Z,5.43
2023-04-04T22:26:32.362Z,6.03
2023-04-04T22:29:00.979Z,8.40
2023-04-04T22:31:28.936Z,5.73
2023-04-04T22:33:56.146Z,5.63
2023-04-04T22:36:23.819Z,6.87
2023-04-04T22:38:57.088Z,8.47
2023-04-04T22:41:29.055Z,7.90
2023-04-04T22:43:57.221Z,6.07
2023-04-04T22:46:25.617Z,7.00
2023-04-04T22:49:05.213Z,6.80
2023-04-04T22:51:42.703Z,5.33
2023-04-04T22:54:09.573Z,7.30
2023-04-04T22:56:36.692Z,8.73
2023-04-04T22:59:03.334Z,6.90
2023-04-04T23:01:30.236Z,6.63
2023-04-04T23:03:57.056Z,6.13
2023-04-04T23:06:24.064Z,6.87
2023-04-04T23:08:50.796Z,7.50
2023-04-04T23:11:17.474Z,5.83
2023-04-04T23:13:44.464Z,6.00
2023-04-04T23:16:11.641Z,6.23
2023-04-04T23:18:38.426Z,5.90
2023-04-04T23:21:05.184Z,8.70
2023-04-04T23:23:31.868Z,6.80
2023-04-04T23:25:58.482Z,6.73
2023-04-04T23:28:28.950Z,5.40
2023-04-04T23:30:55.591Z,8.40
2023-04-04T23:33:22.718Z,6.53
2023-04-04T23:35:49.537Z,6.57
2023-04-04T23:38:16.260Z,7.87
2023-04-04T23:40:43.131Z,4.77
2023-04-04T23:43:09.797Z,6.37
2023-04-04T23:45:40.083Z,8.60
2023-04-04T23:48:06.872Z,8.00
2023-04-04T23:50:33.699Z,6.23
2023-04-04T23:53:00.393Z,7.33
2023-04-04T23:55:27.726Z,6.97
2023-04-04T23:58:00.849Z,8.50
